createdAt,value
2022-10-05T14:31:27.791Z,64.8
2022-10-05T14:36:27.686Z,65
2022-10-05T14:46:29.006Z,64.6
2022-10-05T14:56:27.724Z,64.8
2022-10-05T15:01:27.825Z,64.9
2022-10-05T15:11:27.717Z,64.9
2022-10-05T15:21:27.740Z,65
2022-10-05T15:31:27.710Z,65
2022-10-05T15:46:27.791Z,65.3
2022-10-05T15:51:27.709Z,65.4
2022-10-05T15:56:27.743Z,65.4
2022-10-05T16:06:27.785Z,65.5
2022-10-05T16:11:27.738Z,65.8
2022-10-05T16:21:27.720Z,66.1
2022-10-05T16:31:27.882Z,66.3
2022-10-05T16:36:27.724Z,66.4
2022-10-05T16:41:27.723Z,66.5
2022-10-05T16:46:28.205Z,66.3
2022-10-05T17:06:27.764Z,66.7
2022-10-05T17:11:27.750Z,66.8
2022-10-05T17:21:27.716Z,67
2022-10-05T17:26:27.752Z,67
2022-10-05T17:31:27.928Z,67.2
2022-10-05T17:41:27.720Z,67.4
2022-10-05T17:46:27.902Z,67.5
2022-10-05T17:51:27.748Z,67.6
2022-10-05T18:01:27.754Z,67.6
2022-10-05T18:06:27.896Z,67.5
2022-10-05T18:26:27.762Z,67.7
2022-10-05T18:36:27.752Z,67.6
2022-10-05T18:46:27.860Z,67.6
2022-10-05T18:51:27.770Z,67.6
2022-10-05T19:01:27.998Z,67.6
2022-10-05T19:11:27.815Z,67.4
2022-10-05T19:21:27.754Z,67.4
2022-10-05T19:26:27.756Z,67.3
2022-10-05T19:41:27.812Z,67.1
2022-10-05T19:51:27.784Z,67.2
2022-10-05T20:01:27.851Z,67.1
2022-10-05T20:06:27.775Z,67
2022-10-05T20:16:27.960Z,67.1
2022-10-05T20:26:27.823Z,67
2022-10-05T20:31:27.867Z,67
2022-10-05T20:41:27.777Z,66.9
2022-10-05T21:01:27.858Z,66.9
2022-10-05T21:06:27.787Z,66.7
2022-10-05T21:16:27.937Z,66.6
2022-10-05T21:21:27.804Z,66.7
2022-10-05T21:26:27.783Z,66.7
2022-10-05T21:36:27.812Z,66.7
2022-10-05T21:41:27.879Z,66.7
2022-10-05T21:51:27.814Z,66.6
2022-10-05T22:01:27.904Z,66.7
2022-10-05T22:16:27.856Z,66.6
2022-10-05T22:21:27.837Z,66.5
2022-10-05T22:31:27.887Z,66.6
2022-10-05T22:36:27.840Z,66.6
2022-10-05T22:46:27.912Z,66.5
2022-10-05T22:51:27.839Z,66.6
2022-10-05T23:01:27.903Z,66.6
2022-10-05T23:11:27.881Z,66.8
2022-10-05T23:16:27.971Z,66.7
2022-10-05T23:36:27.847Z,66.6
2022-10-05T23:41:27.832Z,66.5
2022-10-05T23:46:27.876Z,66.5
2022-10-05T23:56:27.887Z,66.7
